sensor_id;sensor_type;location;lat;lon;timestamp;pressure;altitude;pressure_sealevel;temperature
62107;BMP280;48087;32.600;-97.100;2022-09-09T00:04:09;;;;31.110799999999998
62107;BMP280;48087;32.600;-97.100;2022-09-09T00:09:10;;;;30.888579999999997
62107;BMP280;48087;32.600;-97.100;2022-09-09T00:14:14;;;;30.66636
62107;BMP280;48087;32.600;-97.100;2022-09-09T00:19:18;;;;30.388585000000003
62107;BMP280;48087;32.600;-97.100;2022-09-09T00:24:23;;;;29.888589999999997
62107;BMP280;48087;32.600;-97.100;2022-09-09T00:29:26;;;;29.499704999999995
62107;BMP280;48087;32.600;-97.100;2022-09-09T00:34:28;;;;29.055265
62107;BMP280;48087;32.600;-97.100;2022-09-09T00:39:34;;;;28.777489999999997
62107;BMP280;48087;32.600;-97.100;2022-09-09T00:44:37;;;;28.610825
62107;BMP280;48087;32.600;-97.100;2022-09-09T00:49:44;;;;28.277495000000002
62107;BMP280;48087;32.600;-97.100;2022-09-09T00:54:46;;;;28.166385000000002
62107;BMP280;48087;32.600;-97.100;2022-09-09T00:59:50;;;;27.833054999999995
62107;BMP280;48087;32.600;-97.100;2022-09-09T01:04:52;;;;27.666389999999996
62107;BMP280;48087;32.600;-97.100;2022-09-09T01:09:58;;;;27.499724999999998
62107;BMP280;48087;32.600;-97.100;2022-09-09T01:15:04;;;;27.166395
62107;BMP280;48087;32.600;-97.100;2022-09-09T01:20:06;;;;27.055285
62107;BMP280;48087;32.600;-97.100;2022-09-09T01:25:20;;;;26.944174999999998
62107;BMP280;48087;32.600;-97.100;2022-09-09T01:30:15;;;;26.833064999999998
62107;BMP280;48087;32.600;-97.100;2022-09-09T01:35:20;;;;26.721954999999998
62107;BMP280;48087;32.600;-97.100;2022-09-09T01:40:20;;;;26.499735
62107;BMP280;48087;32.600;-97.100;2022-09-09T01:45:24;;;;26.333070000000003
62107;BMP280;48087;32.600;-97.100;2022-09-09T01:50:28;;;;26.22196
62107;BMP280;48087;32.600;-97.100;2022-09-09T01:55:33;;;;26.055295
62107;BMP280;48087;32.600;-97.100;2022-09-09T02:00:36;;;;25.888629999999996
62107;BMP280;48087;32.600;-97.100;2022-09-09T02:05:40;;;;25.721964999999997
62107;BMP280;48087;32.600;-97.100;2022-09-09T02:10:45;;;;25.666410000000003
62107;BMP280;48087;32.600;-97.100;2022-09-09T02:15:49;;;;25.610854999999997
62107;BMP280;48087;32.600;-97.100;2022-09-09T02:20:52;;;;25.5553
62107;BMP280;48087;32.600;-97.100;2022-09-09T02:25:56;;;;25.5553
62107;BMP280;48087;32.600;-97.100;2022-09-09T02:31:00;;;;25.499745000000004
62107;BMP280;48087;32.600;-97.100;2022-09-09T02:36:05;;;;25.333079999999995
62107;BMP280;48087;32.600;-97.100;2022-09-09T02:41:09;;;;25.44419
62107;BMP280;48087;32.600;-97.100;2022-09-09T02:46:17;;;;25.333079999999995
62107;BMP280;48087;32.600;-97.100;2022-09-09T02:51:18;;;;25.221970000000002
62107;BMP280;48087;32.600;-97.100;2022-09-09T02:56:20;;;;25.110860000000002
62107;BMP280;48087;32.600;-97.100;2022-09-09T03:01:40;;;;25.055304999999997
62107;BMP280;48087;32.600;-97.100;2022-09-09T03:06:44;;;;24.833085
62107;BMP280;48087;32.600;-97.100;2022-09-09T03:11:47;;;;24.777529999999995
62107;BMP280;48087;32.600;-97.100;2022-09-09T03:16:52;;;;24.721975
62107;BMP280;48087;32.600;-97.100;2022-09-09T03:21:56;;;;24.499754999999997
62107;BMP280;48087;32.600;-97.100;2022-09-09T03:26:59;;;;24.277535
62107;BMP280;48087;32.600;-97.100;2022-09-09T03:32:04;;;;24.166425
62107;BMP280;48087;32.600;-97.100;2022-09-09T03:37:08;;;;23.944204999999997
62107;BMP280;48087;32.600;-97.100;2022-09-09T03:42:12;;;;23.88865
62107;BMP280;48087;32.600;-97.100;2022-09-09T03:46:12;;;;23.88865
62107;BMP280;48087;32.600;-97.100;2022-09-09T03:51:16;;;;24.055314999999997
62107;BMP280;48087;32.600;-97.100;2022-09-09T03:56:19;;;;24.166425
62107;BMP280;48087;32.600;-97.100;2022-09-09T04:01:24;;;;24.221979999999995
62107;BMP280;48087;32.600;-97.100;2022-09-09T04:06:28;;;;24.221979999999995
62107;BMP280;48087;32.600;-97.100;2022-09-09T04:11:32;;;;24.388645000000004
62107;BMP280;48087;32.600;-97.100;2022-09-09T04:16:36;;;;24.277535
62107;BMP280;48087;32.600;-97.100;2022-09-09T04:21:39;;;;24.221979999999995
62107;BMP280;48087;32.600;-97.100;2022-09-09T04:26:43;;;;24.166425
62107;BMP280;48087;32.600;-97.100;2022-09-09T04:31:48;;;;24.110870000000002
62107;BMP280;48087;32.600;-97.100;2022-09-09T04:36:52;;;;24.166425
62107;BMP280;48087;32.600;-97.100;2022-09-09T04:41:56;;;;23.944204999999997
62107;BMP280;48087;32.600;-97.100;2022-09-09T04:47:00;;;;23.721985
62107;BMP280;48087;32.600;-97.100;2022-09-09T04:52:04;;;;23.44421
62107;BMP280;48087;32.600;-97.100;2022-09-09T04:57:20;;;;23.277545000000003
62107;BMP280;48087;32.600;-97.100;2022-09-09T05:02:28;;;;23.277545000000003
62107;BMP280;48087;32.600;-97.100;2022-09-09T05:07:31;;;;23.499764999999996
62107;BMP280;48087;32.600;-97.100;2022-09-09T05:12:35;;;;23.666429999999995
62107;BMP280;48087;32.600;-97.100;2022-09-09T05:17:39;;;;23.721985
62107;BMP280;48087;32.600;-97.100;2022-09-09T05:22:44;;;;23.555320000000002
62107;BMP280;48087;32.600;-97.100;2022-09-09T05:27:47;;;;23.610875
62107;BMP280;48087;32.600;-97.100;2022-09-09T05:32:52;;;;23.555320000000002
62107;BMP280;48087;32.600;-97.100;2022-09-09T05:37:58;;;;23.610875
62107;BMP280;48087;32.600;-97.100;2022-09-09T05:43:00;;;;23.499764999999996
62107;BMP280;48087;32.600;-97.100;2022-09-09T05:48:03;;;;23.499764999999996
62107;BMP280;48087;32.600;-97.100;2022-09-09T05:53:07;;;;23.499764999999996
62107;BMP280;48087;32.600;-97.100;2022-09-09T05:58:11;;;;23.666429999999995
62107;BMP280;48087;32.600;-97.100;2022-09-09T06:03:15;;;;23.610875
62107;BMP280;48087;32.600;-97.100;2022-09-09T06:08:19;;;;23.555320000000002
62107;BMP280;48087;32.600;-97.100;2022-09-09T06:13:23;;;;23.388654999999996
62107;BMP280;48087;32.600;-97.100;2022-09-09T06:18:27;;;;23.277545000000003
62107;BMP280;48087;32.600;-97.100;2022-09-09T06:23:33;;;;23.221989999999998
62107;BMP280;48087;32.600;-97.100;2022-09-09T06:28:35;;;;23.110879999999998
62107;BMP280;48087;32.600;-97.100;2022-09-09T06:33:40;;;;22.88866
62107;BMP280;48087;32.600;-97.100;2022-09-09T06:38:43;;;;22.721995000000003
62107;BMP280;48087;32.600;-97.100;2022-09-09T06:43:48;;;;22.721995000000003
62107;BMP280;48087;32.600;-97.100;2022-09-09T06:48:51;;;;22.610885
62107;BMP280;48087;32.600;-97.100;2022-09-09T06:53:56;;;;22.555329999999998
62107;BMP280;48087;32.600;-97.100;2022-09-09T06:58:59;;;;22.44422
62107;BMP280;48087;32.600;-97.100;2022-09-09T07:04:03;;;;22.388665
62107;BMP280;48087;32.600;-97.100;2022-09-09T07:09:08;;;;22.388665
62107;BMP280;48087;32.600;-97.100;2022-09-09T07:14:11;;;;22.33311
62107;BMP280;48087;32.600;-97.100;2022-09-09T07:19:15;;;;22.44422
62107;BMP280;48087;32.600;-97.100;2022-09-09T07:24:19;;;;22.44422
62107;BMP280;48087;32.600;-97.100;2022-09-09T07:29:22;;;;22.44422
62107;BMP280;48087;32.600;-97.100;2022-09-09T07:34:27;;;;22.277554999999996
62107;BMP280;48087;32.600;-97.100;2022-09-09T07:39:30;;;;22.166445000000003
62107;BMP280;48087;32.600;-97.100;2022-09-09T07:44:35;;;;21.999779999999998
62107;BMP280;48087;32.600;-97.100;2022-09-09T07:49:40;;;;21.944225
62107;BMP280;48087;32.600;-97.100;2022-09-09T07:54:43;;;;21.77756
62107;BMP280;48087;32.600;-97.100;2022-09-09T07:59:47;;;;21.610895000000003
62107;BMP280;48087;32.600;-97.100;2022-09-09T08:04:51;;;;21.610895000000003
62107;BMP280;48087;32.600;-97.100;2022-09-09T08:09:54;;;;21.722004999999996
62107;BMP280;48087;32.600;-97.100;2022-09-09T08:14:59;;;;21.88867
62107;BMP280;48087;32.600;-97.100;2022-09-09T08:20:03;;;;21.944225
62107;BMP280;48087;32.600;-97.100;2022-09-09T08:25:07;;;;21.88867
62107;BMP280;48087;32.600;-97.100;2022-09-09T08:30:13;;;;21.722004999999996
62107;BMP280;48087;32.600;-97.100;2022-09-09T08:35:15;;;;21.499785000000003
62107;BMP280;48087;32.600;-97.100;2022-09-09T08:40:20;;;;21.66645
62107;BMP280;48087;32.600;-97.100;2022-09-09T08:45:25;;;;21.33312
62107;BMP280;48087;32.600;-97.100;2022-09-09T08:50:28;;;;21.166454999999996
62107;BMP280;48087;32.600;-97.100;2022-09-09T08:55:35;;;;21.166454999999996
62107;BMP280;48087;32.600;-97.100;2022-09-09T09:00:36;;;;21.277565
62107;BMP280;48087;32.600;-97.100;2022-09-09T09:05:41;;;;21.444229999999997
62107;BMP280;48087;32.600;-97.100;2022-09-09T09:10:45;;;;21.277565
62107;BMP280;48087;32.600;-97.100;2022-09-09T09:15:49;;;;21.055345000000003
62107;BMP280;48087;32.600;-97.100;2022-09-09T09:20:56;;;;20.833125
62107;BMP280;48087;32.600;-97.100;2022-09-09T09:25:56;;;;20.777570000000004
62107;BMP280;48087;32.600;-97.100;2022-09-09T09:30:59;;;;20.55535
62107;BMP280;48087;32.600;-97.100;2022-09-09T09:36:04;;;;20.333129999999997
62107;BMP280;48087;32.600;-97.100;2022-09-09T09:41:06;;;;20.444239999999997
62107;BMP280;48087;32.600;-97.100;2022-09-09T09:46:18;;;;20.277575
62107;BMP280;48087;32.600;-97.100;2022-09-09T09:51:15;;;;20.222020000000004
62107;BMP280;48087;32.600;-97.100;2022-09-09T09:56:18;;;;19.9998
62107;BMP280;48087;32.600;-97.100;2022-09-09T10:01:23;;;;19.9998
62107;BMP280;48087;32.600;-97.100;2022-09-09T10:06:30;;;;19.722025
62107;BMP280;48087;32.600;-97.100;2022-09-09T10:11:34;;;;19.722025
62107;BMP280;48087;32.600;-97.100;2022-09-09T10:16:38;;;;19.55536
62107;BMP280;48087;32.600;-97.100;2022-09-09T10:21:51;;;;19.44425
62107;BMP280;48087;32.600;-97.100;2022-09-09T10:26:44;;;;19.55536
62107;BMP280;48087;32.600;-97.100;2022-09-09T10:31:48;;;;19.666470000000004
62107;BMP280;48087;32.600;-97.100;2022-09-09T10:36:50;;;;19.55536
62107;BMP280;48087;32.600;-97.100;2022-09-09T10:41:56;;;;19.44425
62107;BMP280;48087;32.600;-97.100;2022-09-09T10:47:03;;;;19.333139999999997
62107;BMP280;48087;32.600;-97.100;2022-09-09T10:52:05;;;;19.277585000000002
62107;BMP280;48087;32.600;-97.100;2022-09-09T10:57:08;;;;19.277585000000002
62107;BMP280;48087;32.600;-97.100;2022-09-09T11:02:13;;;;19.277585000000002
62107;BMP280;48087;32.600;-97.100;2022-09-09T11:07:16;;;;19.166475
62107;BMP280;48087;32.600;-97.100;2022-09-09T11:12:18;;;;19.333139999999997
62107;BMP280;48087;32.600;-97.100;2022-09-09T11:17:22;;;;19.277585000000002
62107;BMP280;48087;32.600;-97.100;2022-09-09T11:22:27;;;;19.222029999999997
62107;BMP280;48087;32.600;-97.100;2022-09-09T11:27:31;;;;19.222029999999997
62107;BMP280;48087;32.600;-97.100;2022-09-09T11:32:44;;;;19.110920000000004
62107;BMP280;48087;32.600;-97.100;2022-09-09T11:37:43;;;;18.99981
62107;BMP280;48087;32.600;-97.100;2022-09-09T11:42:42;;;;18.944254999999995
62107;BMP280;48087;32.600;-97.100;2022-09-09T11:47:51;;;;18.833145000000002
62107;BMP280;48087;32.600;-97.100;2022-09-09T11:52:51;;;;18.8887
62107;BMP280;48087;32.600;-97.100;2022-09-09T11:57:57;;;;19.110920000000004
62107;BMP280;48087;32.600;-97.100;2022-09-09T12:02:58;;;;19.055365
62107;BMP280;48087;32.600;-97.100;2022-09-09T12:08:02;;;;19.222029999999997
62107;BMP280;48087;32.600;-97.100;2022-09-09T12:13:15;;;;19.222029999999997
62107;BMP280;48087;32.600;-97.100;2022-09-09T12:18:14;;;;19.055365
62107;BMP280;48087;32.600;-97.100;2022-09-09T12:23:16;;;;19.166475
62107;BMP280;48087;32.600;-97.100;2022-09-09T12:28:18;;;;19.055365
62107;BMP280;48087;32.600;-97.100;2022-09-09T12:33:22;;;;19.110920000000004
62107;BMP280;48087;32.600;-97.100;2022-09-09T12:38:29;;;;19.110920000000004
62107;BMP280;48087;32.600;-97.100;2022-09-09T12:43:29;;;;19.222029999999997
62107;BMP280;48087;32.600;-97.100;2022-09-09T12:48:36;;;;19.277585000000002
62107;BMP280;48087;32.600;-97.100;2022-09-09T12:53:38;;;;19.666470000000004
62107;BMP280;48087;32.600;-97.100;2022-09-09T12:58:44;;;;20.166465
62107;BMP280;48087;32.600;-97.100;2022-09-09T13:03:46;;;;21.22201
62107;BMP280;48087;32.600;-97.100;2022-09-09T13:08:51;;;;22.110889999999998
62107;BMP280;48087;32.600;-97.100;2022-09-09T13:13:55;;;;23.277545000000003
62107;BMP280;48087;32.600;-97.100;2022-09-09T13:18:58;;;;24.277535
62107;BMP280;48087;32.600;-97.100;2022-09-09T13:24:02;;;;25.277525
62107;BMP280;48087;32.600;-97.100;2022-09-09T13:29:14;;;;25.721964999999997
62107;BMP280;48087;32.600;-97.100;2022-09-09T13:34:11;;;;26.333070000000003
62107;BMP280;48087;32.600;-97.100;2022-09-09T13:39:15;;;;26.166404999999997
62107;BMP280;48087;32.600;-97.100;2022-09-09T13:44:20;;;;26.499735
62107;BMP280;48087;32.600;-97.100;2022-09-09T13:49:23;;;;26.499735
62107;BMP280;48087;32.600;-97.100;2022-09-09T13:54:25;;;;26.6664
62107;BMP280;48087;32.600;-97.100;2022-09-09T13:59:30;;;;26.55529
62107;BMP280;48087;32.600;-97.100;2022-09-09T14:04:33;;;;26.6664
62107;BMP280;48087;32.600;-97.100;2022-09-09T14:09:39;;;;26.999729999999996
62107;BMP280;48087;32.600;-97.100;2022-09-09T14:14:41;;;;27.444170000000003
62107;BMP280;48087;32.600;-97.100;2022-09-09T14:19:46;;;;27.721945
62107;BMP280;48087;32.600;-97.100;2022-09-09T14:24:49;;;;27.721945
62107;BMP280;48087;32.600;-97.100;2022-09-09T14:29:53;;;;27.833054999999995
62107;BMP280;48087;32.600;-97.100;2022-09-09T14:34:57;;;;27.833054999999995
62107;BMP280;48087;32.600;-97.100;2022-09-09T14:40:02;;;;28.221939999999996
62107;BMP280;48087;32.600;-97.100;2022-09-09T14:45:06;;;;28.666379999999997
62107;BMP280;48087;32.600;-97.100;2022-09-09T14:50:10;;;;28.721935000000002
62107;BMP280;48087;32.600;-97.100;2022-09-09T14:55:13;;;;28.721935000000002
62107;BMP280;48087;32.600;-97.100;2022-09-09T15:00:17;;;;29.277485000000002
62107;BMP280;48087;32.600;-97.100;2022-09-09T15:05:21;;;;29.277485000000002
62107;BMP280;48087;32.600;-97.100;2022-09-09T15:10:25;;;;29.333039999999997
62107;BMP280;48087;32.600;-97.100;2022-09-09T15:15:29;;;;29.499704999999995
62107;BMP280;48087;32.600;-97.100;2022-09-09T15:20:34;;;;29.55526
62107;BMP280;48087;32.600;-97.100;2022-09-09T15:25:37;;;;29.721925
62107;BMP280;48087;32.600;-97.100;2022-09-09T15:30:42;;;;29.721925
62107;BMP280;48087;32.600;-97.100;2022-09-09T15:35:45;;;;30.11081
62107;BMP280;48087;32.600;-97.100;2022-09-09T15:40:53;;;;30.11081
62107;BMP280;48087;32.600;-97.100;2022-09-09T15:45:54;;;;30.333029999999997
62107;BMP280;48087;32.600;-97.100;2022-09-09T15:51:00;;;;30.333029999999997
62107;BMP280;48087;32.600;-97.100;2022-09-09T15:56:01;;;;30.11081
62107;BMP280;48087;32.600;-97.100;2022-09-09T16:01:05;;;;30.610804999999996
62107;BMP280;48087;32.600;-97.100;2022-09-09T16:06:09;;;;30.999689999999998
62107;BMP280;48087;32.600;-97.100;2022-09-09T16:11:14;;;;30.999689999999998
62107;BMP280;48087;32.600;-97.100;2022-09-09T16:16:18;;;;31.110799999999998
62107;BMP280;48087;32.600;-97.100;2022-09-09T16:21:22;;;;31.499685
62107;BMP280;48087;32.600;-97.100;2022-09-09T16:26:25;;;;30.833025
62107;BMP280;48087;32.600;-97.100;2022-09-09T16:31:30;;;;31.22191
62107;BMP280;48087;32.600;-97.100;2022-09-09T16:36:34;;;;31.555239999999998
62107;BMP280;48087;32.600;-97.100;2022-09-09T16:41:37;;;;31.499685
62107;BMP280;48087;32.600;-97.100;2022-09-09T16:46:42;;;;31.666349999999998
62107;BMP280;48087;32.600;-97.100;2022-09-09T16:51:46;;;;31.88857
62107;BMP280;48087;32.600;-97.100;2022-09-09T16:56:49;;;;31.999679999999998
62107;BMP280;48087;32.600;-97.100;2022-09-09T17:01:53;;;;32.055235
62107;BMP280;48087;32.600;-97.100;2022-09-09T17:06:56;;;;31.721904999999996
62107;BMP280;48087;32.600;-97.100;2022-09-09T17:12:01;;;;33.055225
62107;BMP280;48087;32.600;-97.100;2022-09-09T17:17:05;;;;33.055225
62107;BMP280;48087;32.600;-97.100;2022-09-09T17:22:09;;;;32.66634
62107;BMP280;48087;32.600;-97.100;2022-09-09T17:27:13;;;;31.944125
62107;BMP280;48087;32.600;-97.100;2022-09-09T17:32:18;;;;32.83300499999999
62107;BMP280;48087;32.600;-97.100;2022-09-09T17:37:20;;;;33.055225
62107;BMP280;48087;32.600;-97.100;2022-09-09T17:42:25;;;;31.721904999999996
62107;BMP280;48087;32.600;-97.100;2022-09-09T17:47:29;;;;32.110789999999994
62107;BMP280;48087;32.600;-97.100;2022-09-09T17:52:34;;;;31.610795000000003
62107;BMP280;48087;32.600;-97.100;2022-09-09T17:57:38;;;;32.499674999999996
62107;BMP280;48087;32.600;-97.100;2022-09-09T18:02:42;;;;32.88856
62107;BMP280;48087;32.600;-97.100;2022-09-09T18:07:44;;;;33.221889999999995
62107;BMP280;48087;32.600;-97.100;2022-09-09T18:12:49;;;;32.444120000000005
62107;BMP280;48087;32.600;-97.100;2022-09-09T18:17:53;;;;32.444120000000005
62107;BMP280;48087;32.600;-97.100;2022-09-09T18:22:58;;;;32.277454999999996
62107;BMP280;48087;32.600;-97.100;2022-09-09T18:28:02;;;;33.333
62107;BMP280;48087;32.600;-97.100;2022-09-09T18:33:06;;;;34.22188
62107;BMP280;48087;32.600;-97.100;2022-09-09T18:38:08;;;;33.77744
62107;BMP280;48087;32.600;-97.100;2022-09-09T18:43:13;;;;33.11078
62107;BMP280;48087;32.600;-97.100;2022-09-09T18:48:16;;;;32.610785
62107;BMP280;48087;32.600;-97.100;2022-09-09T18:53:21;;;;31.944125
62107;BMP280;48087;32.600;-97.100;2022-09-09T18:58:25;;;;30.833025
62107;BMP280;48087;32.600;-97.100;2022-09-09T19:03:29;;;;30.610804999999996
62107;BMP280;48087;32.600;-97.100;2022-09-09T19:08:32;;;;30.721915
62107;BMP280;48087;32.600;-97.100;2022-09-09T19:13:37;;;;31.721904999999996
62107;BMP280;48087;32.600;-97.100;2022-09-09T19:18:40;;;;32.721895
62107;BMP280;48087;32.600;-97.100;2022-09-09T19:23:45;;;;32.66634
62107;BMP280;48087;32.600;-97.100;2022-09-09T19:28:48;;;;31.88857
62107;BMP280;48087;32.600;-97.100;2022-09-09T19:33:54;;;;32.388565
62107;BMP280;48087;32.600;-97.100;2022-09-09T19:38:58;;;;33.499665
62107;BMP280;48087;32.600;-97.100;2022-09-09T19:44:01;;;;32.721895
62107;BMP280;48087;32.600;-97.100;2022-09-09T19:49:05;;;;32.721895
62107;BMP280;48087;32.600;-97.100;2022-09-09T19:54:09;;;;32.944115
62107;BMP280;48087;32.600;-97.100;2022-09-09T19:59:13;;;;33.610775
62107;BMP280;48087;32.600;-97.100;2022-09-09T20:04:17;;;;33.221889999999995
62107;BMP280;48087;32.600;-97.100;2022-09-09T20:09:21;;;;33.277445
62107;BMP280;48087;32.600;-97.100;2022-09-09T20:14:25;;;;33.44411
62107;BMP280;48087;32.600;-97.100;2022-09-09T20:19:28;;;;33.388555
62107;BMP280;48087;32.600;-97.100;2022-09-09T20:24:33;;;;33.721885
62107;BMP280;48087;32.600;-97.100;2022-09-09T20:29:36;;;;32.77745
62107;BMP280;48087;32.600;-97.100;2022-09-09T20:34:41;;;;32.88856
62107;BMP280;48087;32.600;-97.100;2022-09-09T20:39:44;;;;33.832995000000004
62107;BMP280;48087;32.600;-97.100;2022-09-09T20:44:49;;;;33.44411
62107;BMP280;48087;32.600;-97.100;2022-09-09T20:49:52;;;;33.166335000000004
62107;BMP280;48087;32.600;-97.100;2022-09-09T20:54:57;;;;33.555220000000006
62107;BMP280;48087;32.600;-97.100;2022-09-09T21:00:00;;;;33.499665
62107;BMP280;48087;32.600;-97.100;2022-09-09T21:05:05;;;;34.499655
62107;BMP280;48087;32.600;-97.100;2022-09-09T21:10:08;;;;34.11077
62107;BMP280;48087;32.600;-97.100;2022-09-09T21:15:13;;;;33.333
62107;BMP280;48087;32.600;-97.100;2022-09-09T21:20:16;;;;33.44411
62107;BMP280;48087;32.600;-97.100;2022-09-09T21:25:21;;;;34.277435000000004
62107;BMP280;48087;32.600;-97.100;2022-09-09T21:30:24;;;;34.944095000000004
62107;BMP280;48087;32.600;-97.100;2022-09-09T21:35:29;;;;34.22188
62107;BMP280;48087;32.600;-97.100;2022-09-09T21:40:35;;;;33.832995000000004
62107;BMP280;48087;32.600;-97.100;2022-09-09T21:45:37;;;;34.332989999999995
62107;BMP280;48087;32.600;-97.100;2022-09-09T21:50:41;;;;34.721875
62107;BMP280;48087;32.600;-97.100;2022-09-09T21:55:45;;;;34.22188
62107;BMP280;48087;32.600;-97.100;2022-09-09T22:00:48;;;;34.777429999999995
62107;BMP280;48087;32.600;-97.100;2022-09-09T22:05:53;;;;34.499655
62107;BMP280;48087;32.600;-97.100;2022-09-09T22:10:56;;;;33.666329999999995
62107;BMP280;48087;32.600;-97.100;2022-09-09T22:16:01;;;;33.88855
62107;BMP280;48087;32.600;-97.100;2022-09-09T22:21:05;;;;33.832995000000004
62107;BMP280;48087;32.600;-97.100;2022-09-09T22:26:08;;;;33.721885
62107;BMP280;48087;32.600;-97.100;2022-09-09T22:31:12;;;;33.333
62107;BMP280;48087;32.600;-97.100;2022-09-09T22:36:16;;;;33.721885
62107;BMP280;48087;32.600;-97.100;2022-09-09T22:41:20;;;;33.666329999999995
62107;BMP280;48087;32.600;-97.100;2022-09-09T22:46:24;;;;33.221889999999995
62107;BMP280;48087;32.600;-97.100;2022-09-09T22:51:29;;;;32.2219
62107;BMP280;48087;32.600;-97.100;2022-09-09T22:56:33;;;;31.721904999999996
62107;BMP280;48087;32.600;-97.100;2022-09-09T23:01:36;;;;32.110789999999994
62107;BMP280;48087;32.600;-97.100;2022-09-09T23:06:40;;;;32.2219
62107;BMP280;48087;32.600;-97.100;2022-09-09T23:11:44;;;;32.610785
62107;BMP280;48087;32.600;-97.100;2022-09-09T23:16:48;;;;32.66634
62107;BMP280;48087;32.600;-97.100;2022-09-09T23:21:52;;;;32.721895
62107;BMP280;48087;32.600;-97.100;2022-09-09T23:26:56;;;;32.277454999999996
62107;BMP280;48087;32.600;-97.100;2022-09-09T23:32:00;;;;31.999679999999998
62107;BMP280;48087;32.600;-97.100;2022-09-09T23:37:03;;;;32.2219
62107;BMP280;48087;32.600;-97.100;2022-09-09T23:42:08;;;;32.2219
62107;BMP280;48087;32.600;-97.100;2022-09-09T23:47:12;;;;31.999679999999998
62107;BMP280;48087;32.600;-97.100;2022-09-09T23:52:17;;;;31.610795000000003
62107;BMP280;48087;32.600;-97.100;2022-09-09T23:57:21;;;;31.055245000000003
